Stephenville, Canada
Current Conditions -  °F | °C
As of 1:00 PM on Saturday 20 Dec 2014 (Local Time) from CYJT Reporting Station
Overcast Overcast  
Wind Chill: 22°   Ceiling: 2200
Heat Index: 30°   Visibility: 15mi
Dew Point: 21°   Wind: 9mph
Humidity: 69%   Direction: 50°NE
Pressure: 30.24"   Gusts: NA
Location:  48.55°N, 58.58°W
Report Text: CYJT 201600Z 05008KT 15SM OVC022 M01/M06 A3024 RMK SC8 SLP242
Loading
Personal Weather Stations






























Interactive Weather Map New forecast layout! Learn more

10-Day Weather Forecast

Advertisements
Track Severe Weather on mobile